Time;durP1;ratioP1;P1;durP2;ratioP2;P2;SDS_P1;SDS_P2;PMS_P1;PMS_P2;Temp;Humidity;BMP_temperature;BMP_pressure;BME280_temperature;BME280_humidity;BME280_pressure;Samples;Min_cycle;Max_cycle;Signal;HPM_P1;HPM_P2
2022/09/04 00:02:49;;;;;;;3.22;1.55;;;17.50;70.10;;;;;;5107464;27;20047;-89
2022/09/04 00:05:31;;;;;;;5.03;1.73;;;17.40;70.00;;;;;;5108180;27;20078;-89
2022/09/04 00:08:12;;;;;;;4.97;1.88;;;17.40;70.10;;;;;;5090021;27;20042;-81
2022/09/04 00:10:40;;;;;;;5.13;1.83;;;17.40;70.50;;;;;;5089823;27;21301;-81
2022/09/04 00:13:34;;;;;;;3.95;1.50;;;17.30;70.60;;;;;;5078576;27;20035;-80
2022/09/04 00:16:12;;;;;;;3.70;1.50;;;17.40;71.00;;;;;;5104137;27;20049;-80
2022/09/04 00:18:53;;;;;;;5.57;1.70;;;17.30;71.30;;;;;;5087928;27;20043;-79
2022/09/04 00:21:42;;;;;;;5.05;1.70;;;17.20;71.30;;;;;;5089600;27;20053;-79
2022/09/04 00:24:16;;;;;;;2.20;1.40;;;17.20;71.60;;;;;;5109633;27;20058;-80
2022/09/04 00:27:15;;;;;;;3.42;1.50;;;17.10;71.80;;;;;;5093517;27;20051;-80
2022/09/04 00:29:58;;;;;;;3.67;1.45;;;17.10;72.10;;;;;;5087715;27;20783;-88
2022/09/04 00:32:37;;;;;;;3.33;1.60;;;17.10;72.40;;;;;;5097810;27;20054;-80
2022/09/04 00:35:33;;;;;;;3.67;1.73;;;17.00;72.70;;;;;;5089923;27;20054;-80
2022/09/04 00:38:17;;;;;;;3.47;1.75;;;17.00;73.00;;;;;;5100130;27;20035;-87
2022/09/04 00:40:51;;;;;;;5.10;1.80;;;16.90;73.20;;;;;;5117524;27;20694;-85
2022/09/04 00:43:45;;;;;;;4.47;1.58;;;16.90;73.50;;;;;;5100751;27;20147;-87
2022/09/04 00:46:30;;;;;;;5.78;1.92;;;16.90;73.60;;;;;;5102628;27;20099;-86
2022/09/04 00:49:12;;;;;;;5.22;1.70;;;16.90;73.80;;;;;;5096631;27;20754;-86
2022/09/04 00:51:54;;;;;;;3.97;1.60;;;16.80;74.80;;;;;;5102219;27;20077;-87
2022/09/04 00:54:42;;;;;;;3.33;1.90;;;16.80;74.30;;;;;;5101207;27;20057;-86
2022/09/04 00:57:43;;;;;;;4.47;1.83;;;16.80;74.50;;;;;;5119539;27;20057;-87
2022/09/04 01:00:11;;;;;;;2.50;1.73;;;16.70;74.70;;;;;;5094858;27;20042;-85
2022/09/04 01:02:47;;;;;;;3.95;2.17;;;16.70;75.10;;;;;;5111853;27;20540;-86
2022/09/04 01:05:25;;;;;;;4.28;1.70;;;16.70;74.90;;;;;;5101830;27;20091;-85
2022/09/04 01:08:08;;;;;;;8.18;1.77;;;16.70;75.30;;;;;;5120914;27;20075;-86
2022/09/04 01:10:48;;;;;;;5.93;1.98;;;16.60;75.60;;;;;;5116815;27;20081;-87
2022/09/04 01:13:40;;;;;;;3.53;1.85;;;16.60;75.90;;;;;;5099451;27;20047;-86
2022/09/04 01:16:22;;;;;;;3.22;1.80;;;16.50;76.30;;;;;;5101412;27;20613;-85
2022/09/04 01:19:01;;;;;;;5.78;1.98;;;16.60;76.70;;;;;;5097715;27;20551;-80
2022/09/04 01:21:38;;;;;;;6.10;2.22;;;16.50;76.90;;;;;;5094544;27;21093;-80
2022/09/04 01:24:32;;;;;;;5.35;1.90;;;16.50;77.10;;;;;;5097052;27;20045;-79
2022/09/04 01:27:12;;;;;;;3.92;1.83;;;16.50;77.50;;;;;;5092248;27;20131;-79
2022/09/04 01:29:57;;;;;;;2.70;1.90;;;16.40;77.80;;;;;;5097271;27;20054;-78
2022/09/04 01:32:35;;;;;;;5.47;1.80;;;16.40;78.10;;;;;;5112625;27;20500;-79
2022/09/04 01:35:30;;;;;;;4.43;2.03;;;16.40;78.40;;;;;;5099983;27;20039;-87
2022/09/04 01:38:24;;;;;;;5.13;1.85;;;16.30;78.80;;;;;;5114756;27;20046;-87
2022/09/04 01:41:02;;;;;;;4.97;2.30;;;16.20;79.50;;;;;;5093973;27;20067;-79
2022/09/04 01:43:28;;;;;;;6.03;2.30;;;16.20;79.60;;;;;;5082935;27;20070;-81
2022/09/04 01:46:23;;;;;;;4.07;1.70;;;16.20;80.10;;;;;;5098574;27;20051;-81
2022/09/04 01:49:07;;;;;;;7.72;2.17;;;16.20;80.50;;;;;;5118440;27;20054;-80
2022/09/04 01:51:43;;;;;;;4.05;2.13;;;16.10;80.70;;;;;;5101622;27;20421;-80
2022/09/04 01:54:28;;;;;;;5.78;2.00;;;16.10;81.50;;;;;;5102140;27;20051;-80
2022/09/04 01:57:15;;;;;;;6.05;2.38;;;16.00;81.60;;;;;;5101694;27;20067;-88
2022/09/04 02:00:09;;;;;;;4.53;1.90;;;16.00;82.40;;;;;;5119030;27;20043;-90
2022/09/04 02:02:52;;;;;;;5.82;2.20;;;16.00;82.80;;;;;;5084939;27;20143;-87
2022/09/04 02:05:34;;;;;;;5.43;2.00;;;15.90;83.20;;;;;;5096116;27;20129;-88
2022/09/04 02:08:34;;;;;;;4.18;2.13;;;15.90;83.80;;;;;;5120780;27;20534;-80
2022/09/04 02:11:15;;;;;;;4.68;2.67;;;15.90;84.10;;;;;;5110319;27;20053;-81
2022/09/04 02:14:09;;;;;;;4.97;2.50;;;15.80;84.30;;;;;;5108077;27;20034;-80
2022/09/04 02:17:01;;;;;;;4.90;2.00;;;15.80;84.70;;;;;;5118110;27;20046;-81
2022/09/04 02:19:47;;;;;;;3.70;2.22;;;15.80;85.10;;;;;;5107343;27;20057;-86
2022/09/04 02:22:35;;;;;;;4.38;2.28;;;15.80;85.60;;;;;;5121963;27;20386;-86
2022/09/04 02:25:29;;;;;;;4.60;2.03;;;15.80;86.00;;;;;;5105184;27;20035;-86
2022/09/04 02:27:55;;;;;;;4.47;2.13;;;15.80;86.30;;;;;;5123584;27;20042;-90
2022/09/04 02:30:21;;;;;;;7.30;2.50;;;15.80;86.60;;;;;;5104454;27;20375;-87
2022/09/04 02:33:19;;;;;;;5.10;2.30;;;15.80;86.80;;;;;;5121965;27;20117;-88
2022/09/04 02:36:17;;;;;;;3.92;2.00;;;15.80;87.00;;;;;;5077487;27;20194;-81
2022/09/04 02:38:51;;;;;;;4.10;1.95;;;15.80;87.50;;;;;;5103857;27;20509;-80
2022/09/04 02:41:49;;;;;;;3.03;1.95;;;15.80;87.30;;;;;;5106178;27;20049;-80
2022/09/04 02:44:31;;;;;;;5.65;2.40;;;15.80;87.30;;;;;;5104936;27;20563;-80
2022/09/04 02:47:05;;;;;;;4.28;2.25;;;15.80;87.60;;;;;;5122233;27;20785;-87
2022/09/04 02:49:49;;;;;;;5.70;2.30;;;15.80;87.70;;;;;;5104073;27;20043;-80
2022/09/04 02:52:47;;;;;;;3.72;2.22;;;15.70;87.80;;;;;;5105629;27;20047;-80
2022/09/04 02:55:51;;;;;;;4.05;2.30;;;15.80;88.10;;;;;;5113204;27;20035;-80
2022/09/04 02:58:46;;;;;;;6.07;2.63;;;15.70;88.20;;;;;;5097306;27;20047;-80
2022/09/04 03:01:44;;;;;;;4.15;2.60;;;15.70;88.60;;;;;;5096116;27;20131;-81
2022/09/04 03:04:16;;;;;;;5.53;2.45;;;15.70;88.90;;;;;;5095315;27;20066;-80
2022/09/04 03:06:58;;;;;;;6.20;2.40;;;15.60;89.60;;;;;;5095222;27;20477;-80
2022/09/04 03:09:49;;;;;;;4.35;2.40;;;15.60;89.90;;;;;;5102398;27;20129;-80
2022/09/04 03:12:27;;;;;;;4.63;2.55;;;15.50;90.00;;;;;;5116483;27;20031;-79
2022/09/04 03:15:38;;;;;;;4.47;2.50;;;15.50;90.40;;;;;;5119846;27;20039;-79
2022/09/04 03:18:13;;;;;;;4.78;2.55;;;15.50;90.40;;;;;;5103700;27;20051;-79
2022/09/04 03:20:48;;;;;;;5.00;2.63;;;15.40;90.70;;;;;;5097860;27;20489;-80
2022/09/04 03:23:26;;;;;;;5.35;2.80;;;15.40;90.90;;;;;;5117680;27;20532;-79
2022/09/04 03:26:14;;;;;;;5.95;2.38;;;15.30;91.10;;;;;;5101130;27;20497;-79
2022/09/04 03:28:55;;;;;;;7.07;2.60;;;15.30;91.20;;;;;;5098674;27;20043;-85
2022/09/04 03:31:47;;;;;;;3.50;2.33;;;15.20;91.30;;;;;;5118593;27;20039;-86
2022/09/04 03:34:45;;;;;;;4.90;2.70;;;15.30;91.50;;;;;;5118282;27;20039;-87
2022/09/04 03:37:25;;;;;;;4.82;2.33;;;15.20;91.70;;;;;;5064649;27;20169;-86
2022/09/04 03:40:21;;;;;;;4.82;2.45;;;15.20;91.90;;;;;;5105122;27;20039;-86
2022/09/04 03:43:11;;;;;;;5.45;2.50;;;15.10;92.10;;;;;;5100727;27;20530;-86
2022/09/04 03:45:52;;;;;;;4.85;2.47;;;15.00;92.40;;;;;;5100271;27;20134;-86
2022/09/04 03:48:18;;;;;;;5.63;2.40;;;15.10;92.50;;;;;;5092756;27;20050;-87
2022/09/04 03:50:46;;;;;;;4.82;2.58;;;15.10;92.70;;;;;;5101662;27;20050;-86
2022/09/04 03:53:33;;;;;;;5.03;2.67;;;15.10;92.80;;;;;;5099338;27;20409;-88
2022/09/04 03:56:30;;;;;;;3.88;2.60;;;15.10;93.20;;;;;;5091346;27;21366;-86
2022/09/04 03:59:24;;;;;;;4.47;2.58;;;15.10;93.30;;;;;;5100193;27;20042;-85
2022/09/04 04:02:05;;;;;;;6.00;2.97;;;15.10;93.30;;;;;;5094862;27;20043;-86
2022/09/04 04:05:00;;;;;;;5.38;2.53;;;15.00;93.30;;;;;;5119388;27;20046;-86
2022/09/04 04:07:50;;;;;;;4.72;2.55;;;15.00;93.50;;;;;;5098389;27;20043;-87
2022/09/04 04:10:51;;;;;;;4.90;2.45;;;15.00;93.70;;;;;;5119841;27;20039;-87
2022/09/04 04:13:40;;;;;;;3.90;2.63;;;14.90;93.70;;;;;;5105000;27;20409;-87
2022/09/04 04:16:32;;;;;;;4.32;2.80;;;14.90;93.80;;;;;;5113011;27;20057;-87
2022/09/04 04:19:22;;;;;;;5.70;2.65;;;14.90;94.00;;;;;;5107395;27;20081;-86
2022/09/04 04:22:11;;;;;;;5.65;3.00;;;14.90;94.60;;;;;;5121415;27;20057;-86
2022/09/04 04:25:02;;;;;;;3.80;2.50;;;14.80;94.70;;;;;;5102372;27;20046;-80
2022/09/04 04:27:43;;;;;;;7.80;3.25;;;14.80;94.80;;;;;;5096752;27;20061;-79
2022/09/04 04:30:13;;;;;;;5.78;3.20;;;14.80;94.80;;;;;;5105223;27;20438;-86
2022/09/04 04:32:38;;;;;;;4.03;2.47;;;14.80;95.00;;;;;;5097709;27;20537;-87
2022/09/04 04:35:10;;;;;;;5.80;2.78;;;14.80;95.00;;;;;;5102559;27;20794;-87
2022/09/04 04:37:49;;;;;;;4.50;2.83;;;14.80;95.20;;;;;;5104572;27;20373;-85
2022/09/04 04:40:33;;;;;;;6.32;3.00;;;14.70;95.10;;;;;;5121290;27;20151;-85
2022/09/04 04:43:24;;;;;;;4.45;2.55;;;14.70;95.30;;;;;;5104108;27;20087;-80
2022/09/04 04:45:57;;;;;;;7.00;3.35;;;14.70;95.40;;;;;;5121209;27;20050;-86
2022/09/04 04:48:37;;;;;;;6.20;3.15;;;14.60;95.80;;;;;;5109502;27;20122;-85
2022/09/04 04:51:25;;;;;;;5.93;2.90;;;14.60;96.00;;;;;;5099220;27;20157;-86
2022/09/04 04:54:25;;;;;;;4.80;2.88;;;14.60;96.10;;;;;;5105601;27;20046;-87
2022/09/04 04:57:34;;;;;;;5.35;2.72;;;14.60;96.20;;;;;;5090387;27;20035;-87
2022/09/04 05:00:20;;;;;;;7.05;3.30;;;14.60;96.30;;;;;;5063754;27;20246;-87
2022/09/04 05:03:03;;;;;;;4.45;2.75;;;14.50;96.90;;;;;;5116410;27;20038;-80
2022/09/04 05:05:56;;;;;;;6.78;3.15;;;14.50;97.00;;;;;;5100601;27;20047;-79
2022/09/04 05:09:00;;;;;;;4.75;3.30;;;14.60;96.90;;;;;;5100992;27;20538;-80
2022/09/04 05:11:36;;;;;;;4.80;3.00;;;14.60;96.80;;;;;;5092963;27;20069;-79
2022/09/04 05:14:02;;;;;;;5.90;3.00;;;14.60;96.90;;;;;;5099815;27;20046;-79
2022/09/04 05:16:56;;;;;;;5.35;2.97;;;14.50;97.30;;;;;;5118321;27;20507;-80
2022/09/04 05:19:46;;;;;;;4.43;2.78;;;14.60;97.30;;;;;;5100148;27;20038;-79
2022/09/04 05:22:33;;;;;;;4.45;2.92;;;14.60;97.30;;;;;;5119109;27;20123;-80
2022/09/04 05:25:08;;;;;;;5.50;2.92;;;14.60;97.50;;;;;;5119591;27;20489;-80
2022/09/04 05:27:56;;;;;;;5.63;3.15;;;14.60;97.60;;;;;;5103547;27;20074;-79
2022/09/04 05:30:50;;;;;;;6.65;3.05;;;14.70;97.40;;;;;;5109419;27;20050;-79
2022/09/04 05:33:44;;;;;;;6.57;3.30;;;14.70;97.40;;;;;;5111736;27;20058;-79
2022/09/04 05:36:30;;;;;;;4.53;3.00;;;14.80;97.20;;;;;;5105250;27;20505;-79
2022/09/04 05:39:22;;;;;;;4.88;2.75;;;14.80;97.20;;;;;;5117503;27;20119;-80
2022/09/04 05:41:51;;;;;;;5.65;2.90;;;14.90;97.00;;;;;;5121214;27;20046;-85
2022/09/04 05:44:32;;;;;;;4.43;2.60;;;15.00;97.10;;;;;;5121599;27;20087;-86
2022/09/04 05:47:50;;;;;;;5.28;3.22;;;15.00;96.90;;;;;;5103793;27;20066;-86
2022/09/04 05:50:40;;;;;;;4.32;3.13;;;15.10;96.90;;;;;;5093012;27;20066;-86
2022/09/04 05:53:26;;;;;;;5.82;2.70;;;15.10;97.00;;;;;;5102811;27;20053;-88
2022/09/04 05:56:29;;;;;;;4.07;2.70;;;15.20;96.80;;;;;;5120221;27;20038;-86
2022/09/04 05:59:26;;;;;;;4.70;3.00;;;15.30;96.70;;;;;;5117374;27;20047;-86
2022/09/04 06:02:17;;;;;;;4.82;2.90;;;15.30;96.60;;;;;;5121824;27;20047;-89
2022/09/04 06:05:08;;;;;;;7.55;3.03;;;15.30;96.50;;;;;;5120930;27;20050;-87
2022/09/04 06:07:40;;;;;;;6.50;2.80;;;15.40;96.40;;;;;;5097959;27;21151;-86
2022/09/04 06:10:28;;;;;;;6.13;3.05;;;15.40;96.40;;;;;;5118435;27;20031;-87
2022/09/04 06:13:31;;;;;;;5.90;2.85;;;15.50;96.40;;;;;;5101290;27;20042;-88
2022/09/04 06:16:25;;;;;;;5.65;2.70;;;15.60;96.30;;;;;;5119474;27;20042;-87
2022/09/04 06:19:23;;;;;;;7.65;3.17;;;15.60;96.10;;;;;;5102823;27;20359;-85
2022/09/04 06:22:07;;;;;;;4.95;3.47;;;15.70;96.10;;;;;;5103519;27;20175;-86
2022/09/04 06:24:44;;;;;;;5.60;3.13;;;15.70;96.00;;;;;;5098384;27;20047;-87
2022/09/04 06:27:37;;;;;;;4.78;2.80;;;15.70;96.00;;;;;;5101248;27;20058;-87
2022/09/04 06:30:11;;;;;;;6.28;3.00;;;15.80;96.30;;;;;;5100744;27;20536;-87
2022/09/04 06:33:14;;;;;;;6.13;3.42;;;15.80;96.40;;;;;;5098183;27;20088;-85
2022/09/04 06:35:46;;;;;;;4.32;2.75;;;15.80;96.40;;;;;;5100777;27;20055;-87
2022/09/04 06:38:18;;;;;;;5.50;2.90;;;15.90;96.40;;;;;;5119162;27;20050;-87
2022/09/04 06:41:09;;;;;;;4.68;2.80;;;15.90;96.20;;;;;;5118001;27;20050;-87
2022/09/04 06:43:59;;;;;;;6.10;3.38;;;15.90;96.10;;;;;;5099154;27;20043;-87
2022/09/04 06:46:45;;;;;;;5.78;3.03;;;15.90;96.20;;;;;;5100056;27;20055;-89
2022/09/04 06:49:33;;;;;;;5.78;2.92;;;16.10;96.30;;;;;;5100250;27;20042;-88
2022/09/04 06:52:06;;;;;;;6.78;2.92;;;16.10;96.10;;;;;;5098886;27;20043;-88
2022/09/04 06:55:03;;;;;;;5.93;3.13;;;16.10;96.30;;;;;;5100961;27;20038;-87
2022/09/04 06:57:56;;;;;;;4.28;3.08;;;16.20;96.10;;;;;;5105907;27;20041;-87
2022/09/04 07:00:22;;;;;;;6.45;2.90;;;16.30;96.00;;;;;;5118901;27;20119;-86
2022/09/04 07:03:02;;;;;;;5.43;2.75;;;16.30;96.00;;;;;;5122584;27;20038;-88
2022/09/04 07:06:08;;;;;;;7.50;2.75;;;16.40;95.70;;;;;;5103440;27;20125;-88
2022/09/04 07:08:48;;;;;;;4.70;2.80;;;16.50;95.70;;;;;;5106585;27;20047;-87
2022/09/04 07:11:33;;;;;;;;;;;16.60;95.60;;;;;;5097629;27;20042;-88
2022/09/04 07:14:18;;;;;;;5.68;2.60;;;16.60;95.60;;;;;;5121912;27;19977;-88
2022/09/04 07:17:04;;;;;;;4.20;2.70;;;16.70;95.50;;;;;;5104732;27;20508;-85
2022/09/04 07:19:55;;;;;;;6.10;2.85;;;16.90;95.40;;;;;;5104622;27;20509;-85
2022/09/04 07:22:53;;;;;;;4.38;2.60;;;17.00;95.30;;;;;;5101485;27;20050;-85
2022/09/04 07:25:43;;;;;;;6.50;3.05;;;17.20;95.20;;;;;;5048347;27;20053;-87
2022/09/04 07:28:31;;;;;;;4.82;2.90;;;17.50;94.80;;;;;;5120215;27;20130;-86
2022/09/04 07:31:25;;;;;;;6.55;2.47;;;17.60;94.20;;;;;;5105147;27;20035;-79
2022/09/04 07:34:17;;;;;;;5.32;2.78;;;17.70;93.90;;;;;;5120389;27;20039;-87
2022/09/04 07:37:08;;;;;;;4.88;2.75;;;17.90;93.90;;;;;;5104747;27;20226;-87
2022/09/04 07:39:47;;;;;;;7.93;2.83;;;18.10;93.80;;;;;;5099099;27;20043;-80
2022/09/04 07:42:36;;;;;;;5.85;2.88;;;18.20;93.00;;;;;;5102558;27;20054;-79
2022/09/04 07:45:21;;;;;;;7.85;2.70;;;18.40;92.60;;;;;;5100380;27;20146;-88
2022/09/04 07:48:11;;;;;;;4.35;2.63;;;18.50;92.90;;;;;;5103080;27;20058;-88
2022/09/04 07:51:03;;;;;;;5.38;2.63;;;18.70;92.20;;;;;;5116189;27;20055;-88
2022/09/04 07:53:39;;;;;;;6.35;2.55;;;18.80;91.90;;;;;;5112677;27;20117;-88
2022/09/04 07:56:19;;;;;;;4.53;3.25;;;19.00;91.70;;;;;;5099313;27;20066;-88
2022/09/04 07:59:23;;;;;;;3.80;2.60;;;19.20;91.20;;;;;;5089817;27;20036;-87
2022/09/04 08:01:54;;;;;;;4.22;2.40;;;19.40;90.70;;;;;;5095423;27;21364;-90
2022/09/04 08:04:57;;;;;;;4.53;2.00;;;19.60;90.50;;;;;;5111589;27;20042;-80
2022/09/04 08:07:32;;;;;;;3.53;2.63;;;19.80;90.70;;;;;;5094871;27;20051;-88
2022/09/04 08:10:22;;;;;;;4.35;2.20;;;20.00;89.90;;;;;;5093410;27;20322;-89
2022/09/04 08:12:56;;;;;;;4.28;2.30;;;20.10;89.10;;;;;;5094742;27;20688;-89
2022/09/04 08:15:54;;;;;;;5.30;2.55;;;20.20;88.00;;;;;;5087731;27;20047;-86
2022/09/04 08:19:00;;;;;;;3.90;2.60;;;20.40;86.50;;;;;;5112173;27;20039;-88
2022/09/04 08:21:36;;;;;;;5.70;2.75;;;20.50;85.90;;;;;;5085255;27;20051;-88
2022/09/04 08:24:30;;;;;;;5.75;2.50;;;20.50;84.40;;;;;;5112566;27;20043;-87
2022/09/04 08:27:12;;;;;;;6.13;2.05;;;20.60;84.50;;;;;;5091722;27;20078;-79
2022/09/04 08:29:55;;;;;;;4.35;2.53;;;20.80;86.10;;;;;;5110566;27;20939;-80
2022/09/04 08:32:57;;;;;;;4.28;2.22;;;21.00;85.20;;;;;;5110840;27;20050;-79
2022/09/04 08:35:52;;;;;;;5.90;2.33;;;21.20;82.80;;;;;;5039347;28;20133;-87
2022/09/04 08:38:35;;;;;;;4.95;2.42;;;21.30;83.00;;;;;;5108667;27;20051;-87
2022/09/04 08:41:29;;;;;;;4.40;2.00;;;21.50;82.90;;;;;;5094569;27;20832;-87
2022/09/04 08:44:39;;;;;;;3.85;2.20;;;21.70;83.10;;;;;;5088240;27;20046;-87
2022/09/04 08:47:35;;;;;;;3.53;2.28;;;21.90;81.70;;;;;;5108431;27;20051;-88
2022/09/04 08:50:40;;;;;;;4.35;2.30;;;22.10;79.90;;;;;;5115206;27;20559;-87
2022/09/04 08:53:33;;;;;;;5.50;2.10;;;22.20;79.90;;;;;;5092392;27;20048;-88
2022/09/04 08:56:24;;;;;;;6.22;2.33;;;22.30;78.60;;;;;;5094134;27;20093;-88
2022/09/04 08:59:18;;;;;;;4.50;2.25;;;22.40;78.30;;;;;;5094772;27;20039;-89
2022/09/04 09:02:32;;;;;;;8.55;2.22;;;22.50;77.30;;;;;;5088604;27;20126;-87
2022/09/04 09:05:28;;;;;;;4.05;2.10;;;22.70;77.60;;;;;;5083873;27;20054;-88
2022/09/04 09:08:18;;;;;;;3.97;2.35;;;22.80;76.40;;;;;;5092825;27;20559;-87
2022/09/04 09:11:09;;;;;;;;;;;22.80;74.80;;;;;;5107975;27;20043;-86
2022/09/04 09:14:12;;;;;;;4.85;2.35;;;22.90;75.80;;;;;;5050937;27;20376;-87
2022/09/04 09:17:11;;;;;;;3.90;2.20;;;23.10;75.10;;;;;;5081448;27;20117;-87
2022/09/04 09:19:45;;;;;;;3.65;2.03;;;23.20;73.90;;;;;;5089678;28;20550;-87
2022/09/04 09:22:37;;;;;;;4.35;2.17;;;23.30;73.20;;;;;;5089755;27;20164;-86
2022/09/04 09:25:30;;;;;;;4.72;2.03;;;23.50;73.00;;;;;;5087474;27;20096;-87
2022/09/04 09:28:16;;;;;;;3.30;1.75;;;23.60;72.40;;;;;;5081490;27;20221;-88
2022/09/04 09:31:05;;;;;;;3.00;1.92;;;23.70;71.50;;;;;;5085495;27;20051;-87
2022/09/04 09:33:59;;;;;;;3.55;1.63;;;23.80;70.90;;;;;;5093314;28;20031;-85
2022/09/04 09:36:48;;;;;;;4.60;1.80;;;23.90;70.80;;;;;;5106788;27;20483;-88
2022/09/04 09:39:48;;;;;;;3.83;1.60;;;24.00;70.70;;;;;;5049169;28;20505;-88
2022/09/04 09:42:17;;;;;;;;;;;24.20;70.00;;;;;;5094699;28;20714;-84
2022/09/04 09:45:13;;;;;;;3.65;1.75;;;24.40;69.90;;;;;;5091083;28;19956;-87
2022/09/04 09:47:58;;;;;;;3.28;1.80;;;24.50;69.20;;;;;;5090431;27;20506;-87
2022/09/04 09:50:45;;;;;;;3.55;1.63;;;24.60;68.10;;;;;;5110050;27;20131;-87
2022/09/04 09:53:49;;;;;;;3.67;1.95;;;24.80;67.10;;;;;;5095893;28;20043;-87
2022/09/04 09:56:33;;;;;;;3.83;1.90;;;24.90;67.10;;;;;;5091727;28;20039;-85
2022/09/04 09:59:40;;;;;;;2.97;1.70;;;24.90;67.80;;;;;;5109986;28;20394;-79
2022/09/04 10:02:38;;;;;;;5.18;1.95;;;25.10;66.30;;;;;;5110378;28;20066;-82
2022/09/04 10:05:17;;;;;;;3.28;1.80;;;25.10;66.20;;;;;;5089489;28;20731;-85
2022/09/04 10:07:52;;;;;;;6.07;1.67;;;25.20;66.00;;;;;;5096335;28;20058;-89
2022/09/04 10:10:40;;;;;;;7.22;1.80;;;25.30;65.10;;;;;;5087706;28;20334;-84
2022/09/04 10:13:44;;;;;;;3.95;1.70;;;25.50;64.50;;;;;;5098136;28;20035;-85
2022/09/04 10:16:28;;;;;;;4.90;1.80;;;25.50;64.60;;;;;;5075718;28;20051;-84
2022/09/04 10:19:42;;;;;;;3.35;1.58;;;25.60;64.90;;;;;;5112097;28;20039;-84
2022/09/04 10:22:22;;;;;;;2.97;1.75;;;25.70;63.90;;;;;;5079868;28;20491;-87
2022/09/04 10:25:10;;;;;;;3.72;1.83;;;25.80;62.80;;;;;;5094122;28;20053;-88
2022/09/04 10:28:13;;;;;;;3.53;1.80;;;25.80;61.10;;;;;;5093410;28;20556;-85
2022/09/04 10:31:01;;;;;;;4.25;1.55;;;25.80;61.20;;;;;;5095016;27;20389;-84
2022/09/04 10:33:44;;;;;;;3.78;1.85;;;25.70;61.90;;;;;;5091013;27;20459;-88
2022/09/04 10:36:29;;;;;;;2.60;1.50;;;25.70;61.30;;;;;;5120503;27;20502;-89
2022/09/04 10:42:44;;;;;;;4.65;1.73;;;25.80;62.60;;;;;;5109653;27;20602;-86
2022/09/04 10:45:12;;;;;;;3.70;1.88;;;25.90;61.20;;;;;;5109318;27;20051;-86
2022/09/04 10:48:06;;;;;;;3.03;1.63;;;25.90;61.20;;;;;;5093467;27;20051;-86
2022/09/04 10:51:10;;;;;;;4.53;1.63;;;26.00;60.60;;;;;;5091257;27;20064;-84
2022/09/04 10:54:04;;;;;;;3.83;1.63;;;25.90;60.80;;;;;;5107332;27;20131;-86
2022/09/04 10:56:49;;;;;;;3.00;1.60;;;25.80;61.80;;;;;;5108294;27;20549;-87
2022/09/04 10:59:41;;;;;;;3.45;1.70;;;25.70;61.90;;;;;;5106800;27;20057;-88
2022/09/04 11:02:37;;;;;;;4.10;1.85;;;25.90;61.60;;;;;;5053759;28;20093;-85
2022/09/04 11:05:28;;;;;;;6.30;1.50;;;26.00;61.50;;;;;;5082291;27;20042;-85
2022/09/04 11:08:18;;;;;;;4.45;1.90;;;26.10;61.30;;;;;;5097719;27;20051;-85
2022/09/04 11:11:23;;;;;;;4.60;1.80;;;26.20;61.30;;;;;;5096913;27;20048;-82
2022/09/04 11:14:10;;;;;;;5.72;1.90;;;26.30;61.00;;;;;;5086145;27;20612;-82
2022/09/04 11:16:57;;;;;;;3.60;1.67;;;26.40;61.50;;;;;;5097261;27;20047;-82
2022/09/04 11:19:45;;;;;;;2.55;1.67;;;26.70;61.60;;;;;;5098438;27;20039;-84
2022/09/04 11:22:33;;;;;;;4.40;1.70;;;26.70;60.80;;;;;;5095827;27;20039;-82
2022/09/04 11:25:18;;;;;;;4.18;1.70;;;26.70;61.60;;;;;;5100684;27;20518;-82
2022/09/04 11:28:22;;;;;;;3.00;1.70;;;26.70;62.80;;;;;;5096785;27;20043;-83
2022/09/04 11:31:00;;;;;;;6.93;1.80;;;26.70;60.90;;;;;;5098498;27;20929;-85
2022/09/04 11:33:38;;;;;;;5.75;1.60;;;26.80;61.20;;;;;;5111611;27;20183;-83
2022/09/04 11:36:28;;;;;;;2.53;1.50;;;26.90;60.80;;;;;;5098009;27;20031;-84
2022/09/04 11:39:26;;;;;;;4.88;1.90;;;26.90;61.40;;;;;;5113915;27;20577;-83
2022/09/04 11:42:10;;;;;;;3.28;1.80;;;26.90;60.20;;;;;;5062904;27;20101;-84
2022/09/04 11:44:59;;;;;;;3.13;1.80;;;26.90;60.30;;;;;;5092437;27;20047;-82
2022/09/04 11:47:56;;;;;;;6.93;1.80;;;27.00;60.10;;;;;;5095209;27;20575;-83
2022/09/04 11:50:56;;;;;;;5.00;1.77;;;27.10;59.80;;;;;;5096937;27;20075;-83
2022/09/04 11:53:40;;;;;;;;;;;27.20;59.90;;;;;;5096248;27;20043;-80
2022/09/04 11:56:46;;;;;;;4.60;2.15;;;27.20;60.10;;;;;;5115583;27;19950;-85
2022/09/04 11:59:15;;;;;;;3.67;1.90;;;27.20;59.20;;;;;;5097778;27;20027;-83
2022/09/04 12:02:02;;;;;;;3.58;1.80;;;27.20;59.50;;;;;;5092647;27;20099;-84
2022/09/04 12:04:53;;;;;;;2.80;1.83;;;27.20;59.90;;;;;;5113278;27;20047;-82
2022/09/04 12:07:51;;;;;;;2.97;1.55;;;27.30;60.10;;;;;;5085646;27;20047;-84
2022/09/04 12:10:30;;;;;;;4.15;1.63;;;27.30;59.90;;;;;;5054954;27;20043;-84
2022/09/04 12:13:09;;;;;;;2.47;1.67;;;27.40;59.40;;;;;;5111050;27;20437;-84
2022/09/04 12:15:59;;;;;;;3.50;1.80;;;27.40;60.10;;;;;;5096409;27;20744;-85
2022/09/04 12:19:03;;;;;;;2.58;1.48;;;27.40;58.10;;;;;;5110350;27;20035;-84
2022/09/04 12:22:17;;;;;;;3.45;1.63;;;27.20;60.30;;;;;;5095856;27;20054;-84
2022/09/04 12:25:02;;;;;;;3.00;1.75;;;27.40;60.40;;;;;;5038038;27;20215;-85
2022/09/04 12:28:08;;;;;;;2.35;1.70;;;27.40;60.00;;;;;;5092618;27;20608;-84
2022/09/04 12:30:53;;;;;;;3.42;1.60;;;27.40;59.90;;;;;;5094102;27;20047;-83
2022/09/04 12:33:47;;;;;;;3.65;1.80;;;27.40;59.70;;;;;;5112487;27;20043;-83
2022/09/04 12:36:42;;;;;;;4.05;1.88;;;27.50;59.10;;;;;;5096153;27;20058;-84
2022/09/04 12:39:38;;;;;;;3.70;1.73;;;27.50;58.70;;;;;;5093863;27;20050;-85
2022/09/04 12:42:12;;;;;;;3.03;1.63;;;27.60;59.00;;;;;;5111434;27;20510;-84
2022/09/04 12:45:11;;;;;;;5.93;1.80;;;27.70;58.20;;;;;;5098204;27;20043;-81
2022/09/04 12:47:50;;;;;;;3.08;1.48;;;27.60;58.50;;;;;;5095984;27;20057;-87
2022/09/04 12:50:26;;;;;;;2.90;1.50;;;27.60;57.90;;;;;;5094122;27;20061;-85
2022/09/04 12:53:24;;;;;;;2.03;1.52;;;27.60;58.10;;;;;;5113286;27;20050;-83
2022/09/04 12:56:15;;;;;;;2.08;1.60;;;27.50;57.70;;;;;;5094382;27;20154;-84
2022/09/04 12:58:49;;;;;;;2.85;1.70;;;27.50;58.50;;;;;;5111359;27;20143;-83
2022/09/04 13:01:30;;;;;;;2.88;1.80;;;27.50;58.30;;;;;;5096240;27;20090;-83
2022/09/04 13:04:18;;;;;;;2.15;1.50;;;27.50;58.50;;;;;;5109301;27;20089;-84
2022/09/04 13:07:00;;;;;;;3.72;1.80;;;27.40;58.10;;;;;;5111188;27;20054;-85
2022/09/04 13:09:57;;;;;;;2.88;1.70;;;27.40;59.10;;;;;;5094680;27;20454;-82
2022/09/04 13:12:51;;;;;;;3.55;1.60;;;27.50;58.80;;;;;;5094644;27;20053;-83
2022/09/04 13:16:07;;;;;;;2.20;1.60;;;27.60;58.40;;;;;;5092291;27;20047;-83
2022/09/04 13:19:12;;;;;;;2.90;1.83;;;27.70;59.20;;;;;;5090673;27;20111;-82
2022/09/04 13:21:50;;;;;;;2.38;1.40;;;27.90;58.10;;;;;;5022933;27;20061;-80
2022/09/04 13:24:24;;;;;;;3.42;1.63;;;27.90;57.70;;;;;;5093125;27;20649;-82
2022/09/04 13:27:25;;;;;;;2.95;1.50;;;27.90;57.90;;;;;;5101994;27;20043;-83
2022/09/04 13:30:05;;;;;;;2.97;1.45;;;28.00;57.60;;;;;;5092841;27;20107;-85
2022/09/04 13:33:38;;;;;;;2.45;1.48;;;28.00;57.70;;;;;;5111151;27;20331;-86
2022/09/04 13:36:22;;;;;;;4.68;1.75;;;28.00;57.30;;;;;;5057533;28;20407;-84
2022/09/04 13:39:17;;;;;;;3.50;1.60;;;28.00;57.10;;;;;;5027636;28;20049;-83
2022/09/04 13:42:23;;;;;;;3.92;1.92;;;27.90;58.00;;;;;;5065285;27;20051;-82
2022/09/04 13:44:55;;;;;;;5.55;1.60;;;27.90;57.90;;;;;;5079956;28;20052;-83
2022/09/04 13:47:25;;;;;;;2.00;1.70;;;27.80;58.10;;;;;;5074022;28;20054;-83
2022/09/04 13:50:15;;;;;;;2.03;1.70;;;27.80;58.00;;;;;;5083119;28;20070;-85
2022/09/04 13:52:48;;;;;;;3.15;1.73;;;27.80;57.60;;;;;;5076832;28;20078;-83
2022/09/04 13:55:21;;;;;;;5.65;2.05;;;27.80;57.70;;;;;;5077653;28;20040;-85
2022/09/04 13:58:26;;;;;;;3.03;1.80;;;27.70;57.00;;;;;;5100229;28;21154;-85
2022/09/04 14:00:59;;;;;;;3.00;1.80;;;27.60;58.20;;;;;;5019849;28;20190;-84
2022/09/04 14:03:37;;;;;;;3.17;1.80;;;27.50;58.60;;;;;;5068481;28;20471;-84
2022/09/04 14:06:06;;;;;;;4.20;1.80;;;27.60;58.20;;;;;;5078704;28;20047;-85
2022/09/04 14:08:35;;;;;;;;;;;27.50;59.40;;;;;;5081328;28;20112;-84
2022/09/04 14:11:10;;;;;;;3.13;2.10;;;27.40;58.60;;;;;;5098685;28;19919;-84
2022/09/04 14:13:51;;;;;;;2.08;1.80;;;27.50;58.80;;;;;;5077088;28;20083;-84
2022/09/04 14:16:18;;;;;;;3.10;1.92;;;27.60;57.90;;;;;;5099648;28;20051;-83
2022/09/04 14:19:19;;;;;;;2.92;1.80;;;27.50;58.00;;;;;;5102050;28;20590;-83
2022/09/04 14:22:03;;;;;;;3.47;1.95;;;27.60;58.30;;;;;;5040497;28;20540;-85
2022/09/04 14:25:01;;;;;;;4.05;1.80;;;27.60;57.40;;;;;;5082769;28;20035;-85
2022/09/04 14:27:39;;;;;;;2.95;1.42;;;27.70;56.80;;;;;;5054830;28;20097;-84
2022/09/04 14:30:12;;;;;;;2.38;1.98;;;27.70;56.70;;;;;;5057902;28;20131;-84
2022/09/04 14:32:54;;;;;;;3.80;2.08;;;27.70;56.60;;;;;;5080612;28;20051;-83
2022/09/04 14:35:55;;;;;;;3.78;1.67;;;27.60;57.20;;;;;;5058837;28;20075;-83
2022/09/04 14:38:49;;;;;;;3.17;1.58;;;27.60;57.10;;;;;;5067914;28;20413;-85